sensor_id;sensor_type;location;lat;lon;timestamp;pressure;altitude;pressure_sealevel;temperature;humidity
53619;BME280;39505;53.040;18.488;2023-03-05T00:00:03;100869.19;;;-2.35;83.29
53619;BME280;39505;53.040;18.488;2023-03-05T00:00:17;100872.66;;;-2.34;83.38
53619;BME280;39505;53.040;18.488;2023-03-05T00:00:50;100877.94;;;-2.36;83.46
53619;BME280;39505;53.040;18.488;2023-03-05T00:01:12;100875.31;;;-2.36;83.37
53619;BME280;39505;53.040;18.488;2023-03-05T00:01:27;100873.63;;;-2.37;84.06
53619;BME280;39505;53.040;18.488;2023-03-05T00:01:40;100875.41;;;-2.37;83.90
53619;BME280;39505;53.040;18.488;2023-03-05T00:01:53;100876.25;;;-2.37;84.53
53619;BME280;39505;53.040;18.488;2023-03-05T00:02:05;100876.25;;;-2.37;84.63
53619;BME280;39505;53.040;18.488;2023-03-05T00:02:19;100873.66;;;-2.38;84.73
53619;BME280;39505;53.040;18.488;2023-03-05T00:02:32;100873.66;;;-2.38;84.96
53619;BME280;39505;53.040;18.488;2023-03-05T00:02:44;100878.06;;;-2.39;85.12
53619;BME280;39505;53.040;18.488;2023-03-05T00:02:57;100867.56;;;-2.39;85.73
53619;BME280;39505;53.040;18.488;2023-03-05T00:03:10;100865.81;;;-2.40;85.54
53619;BME280;39505;53.040;18.488;2023-03-05T00:03:23;100875.44;;;-2.39;85.08
53619;BME280;39505;53.040;18.488;2023-03-05T00:03:35;100873.66;;;-2.38;85.02
53619;BME280;39505;53.040;18.488;2023-03-05T00:03:49;100867.56;;;-2.39;85.16
53619;BME280;39505;53.040;18.488;2023-03-05T00:04:09;100871.06;;;-2.40;85.00
53619;BME280;39505;53.040;18.488;2023-03-05T00:04:24;100865.94;;;-2.43;85.15
53619;BME280;39505;53.040;18.488;2023-03-05T00:04:36;100868.50;;;-2.41;85.00
53619;BME280;39505;53.040;18.488;2023-03-05T00:04:49;100872.00;;;-2.41;84.85
53619;BME280;39505;53.040;18.488;2023-03-05T00:05:02;100865.88;;;-2.41;85.25
53619;BME280;39505;53.040;18.488;2023-03-05T00:05:15;100868.50;;;-2.41;85.39
53619;BME280;39505;53.040;18.488;2023-03-05T00:05:29;100869.38;;;-2.41;85.12
53619;BME280;39505;53.040;18.488;2023-03-05T00:05:41;100868.56;;;-2.43;85.07
53619;BME280;39505;53.040;18.488;2023-03-05T00:05:55;100872.91;;;-2.42;85.28
53619;BME280;39505;53.040;18.488;2023-03-05T00:06:07;100872.03;;;-2.42;85.61
53619;BME280;39505;53.040;18.488;2023-03-05T00:06:22;100866.84;;;-2.44;85.06
53619;BME280;39505;53.040;18.488;2023-03-05T00:06:35;100873.81;;;-2.43;85.00
53619;BME280;39505;53.040;18.488;2023-03-05T00:06:49;100872.94;;;-2.43;84.89
53619;BME280;39505;53.040;18.488;2023-03-05T00:07:02;100865.06;;;-2.43;84.81
53619;BME280;39505;53.040;18.488;2023-03-05T00:07:14;100870.31;;;-2.43;84.94
53619;BME280;39505;53.040;18.488;2023-03-05T00:07:27;100866.84;;;-2.44;85.67
53619;BME280;39505;53.040;18.488;2023-03-05T00:07:40;100866.88;;;-2.45;86.51
53619;BME280;39505;53.040;18.488;2023-03-05T00:07:53;100865.13;;;-2.45;87.25
53619;BME280;39505;53.040;18.488;2023-03-05T00:08:05;100871.28;;;-2.46;87.20
53619;BME280;39505;53.040;18.488;2023-03-05T00:08:18;100872.19;;;-2.47;87.50
53619;BME280;39505;53.040;18.488;2023-03-05T00:08:31;100863.44;;;-2.47;87.20
53619;BME280;39505;53.040;18.488;2023-03-05T00:08:45;100868.69;;;-2.47;87.33
53619;BME280;39505;53.040;18.488;2023-03-05T00:08:58;100867.84;;;-2.48;87.84
53619;BME280;39505;53.040;18.488;2023-03-05T00:09:11;100866.09;;;-2.49;88.20
53619;BME280;39505;53.040;18.488;2023-03-05T00:09:24;100866.09;;;-2.49;88.10
53619;BME280;39505;53.040;18.488;2023-03-05T00:09:37;100867.03;;;-2.50;87.97
53619;BME280;39505;53.040;18.488;2023-03-05T00:09:49;100861.78;;;-2.50;88.11
53619;BME280;39505;53.040;18.488;2023-03-05T00:10:04;100862.66;;;-2.51;87.71
53619;BME280;39505;53.040;18.488;2023-03-05T00:10:17;100865.28;;;-2.51;87.33
53619;BME280;39505;53.040;18.488;2023-03-05T00:10:30;100862.66;;;-2.51;87.52
53619;BME280;39505;53.040;18.488;2023-03-05T00:10:43;100863.59;;;-2.52;87.36
53619;BME280;39505;53.040;18.488;2023-03-05T00:10:56;100867.09;;;-2.53;87.30
53619;BME280;39505;53.040;18.488;2023-03-05T00:11:10;100861.84;;;-2.53;87.67
53619;BME280;39505;53.040;18.488;2023-03-05T00:11:24;100862.78;;;-2.54;87.92
53619;BME280;39505;53.040;18.488;2023-03-05T00:11:40;100863.63;;;-2.54;88.57
53619;BME280;39505;53.040;18.488;2023-03-05T00:11:53;100865.41;;;-2.54;89.11
53619;BME280;39505;53.040;18.488;2023-03-05T00:12:06;100864.56;;;-2.55;90.12
53619;BME280;39505;53.040;18.488;2023-03-05T00:12:19;100866.28;;;-2.55;90.41
53619;BME280;39505;53.040;18.488;2023-03-05T00:12:31;100861.97;;;-2.56;91.07
53619;BME280;39505;53.040;18.488;2023-03-05T00:12:44;100860.22;;;-2.57;91.61
53619;BME280;39505;53.040;18.488;2023-03-05T00:12:58;100866.34;;;-2.57;91.88
53619;BME280;39505;53.040;18.488;2023-03-05T00:13:10;100858.53;;;-2.58;92.34
53619;BME280;39505;53.040;18.488;2023-03-05T00:13:23;100859.44;;;-2.59;92.20
53619;BME280;39505;53.040;18.488;2023-03-05T00:13:37;100863.78;;;-2.58;92.35
53619;BME280;39505;53.040;18.488;2023-03-05T00:13:50;100864.69;;;-2.59;92.92
53619;BME280;39505;53.040;18.488;2023-03-05T00:14:03;100862.97;;;-2.60;92.28
53619;BME280;39505;53.040;18.488;2023-03-05T00:14:17;100858.56;;;-2.60;92.19
53619;BME280;39505;53.040;18.488;2023-03-05T00:14:31;100864.72;;;-2.61;92.11
53619;BME280;39505;53.040;18.488;2023-03-05T00:14:43;100858.63;;;-2.61;92.43
53619;BME280;39505;53.040;18.488;2023-03-05T00:14:56;100863.88;;;-2.61;92.34
53619;BME280;39505;53.040;18.488;2023-03-05T00:15:09;100855.13;;;-2.62;91.76
53619;BME280;39505;53.040;18.488;2023-03-05T00:15:21;100861.25;;;-2.61;91.76
53619;BME280;39505;53.040;18.488;2023-03-05T00:15:40;100861.25;;;-2.61;91.38
53619;BME280;39505;53.040;18.488;2023-03-05T00:15:53;100857.72;;;-2.60;90.65
53619;BME280;39505;53.040;18.488;2023-03-05T00:16:09;100856.84;;;-2.61;89.68
53619;BME280;39505;53.040;18.488;2023-03-05T00:16:22;100855.09;;;-2.60;89.36
53619;BME280;39505;53.040;18.488;2023-03-05T00:16:38;100855.09;;;-2.60;89.61
53619;BME280;39505;53.040;18.488;2023-03-05T00:16:51;100857.72;;;-2.60;89.55
53619;BME280;39505;53.040;18.488;2023-03-05T00:17:04;100854.22;;;-2.61;89.35
53619;BME280;39505;53.040;18.488;2023-03-05T00:17:17;100851.59;;;-2.61;89.44
53619;BME280;39505;53.040;18.488;2023-03-05T00:17:30;100855.09;;;-2.60;89.86
53619;BME280;39505;53.040;18.488;2023-03-05T00:17:43;100856.81;;;-2.59;89.57
53619;BME280;39505;53.040;18.488;2023-03-05T00:17:56;100849.84;;;-2.60;89.49
53619;BME280;39505;53.040;18.488;2023-03-05T00:18:09;100852.47;;;-2.60;89.50
53619;BME280;39505;53.040;18.488;2023-03-05T00:18:21;100854.22;;;-2.61;89.59
53619;BME280;39505;53.040;18.488;2023-03-05T00:18:34;100846.41;;;-2.62;89.15
53619;BME280;39505;53.040;18.488;2023-03-05T00:18:47;100854.22;;;-2.61;89.01
53619;BME280;39505;53.040;18.488;2023-03-05T00:19:00;100854.22;;;-2.61;89.60
53619;BME280;39505;53.040;18.488;2023-03-05T00:19:14;100849.88;;;-2.62;90.30
53619;BME280;39505;53.040;18.488;2023-03-05T00:19:28;100854.22;;;-2.61;89.70
53619;BME280;39505;53.040;18.488;2023-03-05T00:19:41;100856.00;;;-2.61;90.11
53619;BME280;39505;53.040;18.488;2023-03-05T00:19:53;100847.31;;;-2.63;90.15
53619;BME280;39505;53.040;18.488;2023-03-05T00:20:07;100851.69;;;-2.64;90.23
53619;BME280;39505;53.040;18.488;2023-03-05T00:20:20;100852.56;;;-2.63;90.45
53619;BME280;39505;53.040;18.488;2023-03-05T00:20:33;100849.88;;;-2.62;90.48
53619;BME280;39505;53.040;18.488;2023-03-05T00:20:46;100849.00;;;-2.62;89.77
53619;BME280;39505;53.040;18.488;2023-03-05T00:21:00;100852.50;;;-2.62;89.91
53619;BME280;39505;53.040;18.488;2023-03-05T00:21:17;100846.41;;;-2.62;90.05
53619;BME280;39505;53.040;18.488;2023-03-05T00:21:32;100848.13;;;-2.61;89.53
53619;BME280;39505;53.040;18.488;2023-03-05T00:21:45;100857.72;;;-2.60;89.88
53619;BME280;39505;53.040;18.488;2023-03-05T00:21:57;100850.75;;;-2.61;89.70
53619;BME280;39505;53.040;18.488;2023-03-05T00:22:10;100850.75;;;-2.61;90.06
53619;BME280;39505;53.040;18.488;2023-03-05T00:22:23;100850.75;;;-2.61;89.84
53619;BME280;39505;53.040;18.488;2023-03-05T00:22:36;100850.75;;;-2.61;90.17
53619;BME280;39505;53.040;18.488;2023-03-05T00:22:49;100851.59;;;-2.61;90.73
53619;BME280;39505;53.040;18.488;2023-03-05T00:23:01;100845.50;;;-2.61;90.86
53619;BME280;39505;53.040;18.488;2023-03-05T00:23:14;100848.97;;;-2.61;90.77
53619;BME280;39505;53.040;18.488;2023-03-05T00:23:27;100851.59;;;-2.61;91.05
53619;BME280;39505;53.040;18.488;2023-03-05T00:23:40;100855.09;;;-2.60;90.82
53619;BME280;39505;53.040;18.488;2023-03-05T00:23:54;100850.75;;;-2.61;90.62
53619;BME280;39505;53.040;18.488;2023-03-05T00:24:11;100848.97;;;-2.61;90.84
53619;BME280;39505;53.040;18.488;2023-03-05T00:24:23;100852.47;;;-2.60;91.09
53619;BME280;39505;53.040;18.488;2023-03-05T00:24:36;100849.88;;;-2.62;91.18
53619;BME280;39505;53.040;18.488;2023-03-05T00:24:49;100850.75;;;-2.61;91.53
53619;BME280;39505;53.040;18.488;2023-03-05T00:25:04;100849.00;;;-2.62;91.40
53619;BME280;39505;53.040;18.488;2023-03-05T00:25:17;100849.00;;;-2.62;91.34
53619;BME280;39505;53.040;18.488;2023-03-05T00:25:29;100842.06;;;-2.63;91.98
53619;BME280;39505;53.040;18.488;2023-03-05T00:25:43;100849.00;;;-2.62;92.27
53619;BME280;39505;53.040;18.488;2023-03-05T00:26:00;100848.16;;;-2.63;92.44
53619;BME280;39505;53.040;18.488;2023-03-05T00:26:12;100849.94;;;-2.63;92.06
53619;BME280;39505;53.040;18.488;2023-03-05T00:26:25;100847.31;;;-2.63;92.00
53619;BME280;39505;53.040;18.488;2023-03-05T00:26:39;100843.81;;;-2.64;91.63
53619;BME280;39505;53.040;18.488;2023-03-05T00:26:51;100848.19;;;-2.64;91.72
53619;BME280;39505;53.040;18.488;2023-03-05T00:27:05;100843.88;;;-2.65;91.03
53619;BME280;39505;53.040;18.488;2023-03-05T00:27:18;100843.06;;;-2.67;90.59
53619;BME280;39505;53.040;18.488;2023-03-05T00:27:31;100846.53;;;-2.67;90.86
53619;BME280;39505;53.040;18.488;2023-03-05T00:27:44;100845.69;;;-2.67;91.04
53619;BME280;39505;53.040;18.488;2023-03-05T00:27:56;100846.53;;;-2.67;91.22
53619;BME280;39505;53.040;18.488;2023-03-05T00:28:09;100846.53;;;-2.67;91.24
53619;BME280;39505;53.040;18.488;2023-03-05T00:28:22;100842.13;;;-2.66;91.02
53619;BME280;39505;53.040;18.488;2023-03-05T00:28:34;100847.38;;;-2.66;90.61
53619;BME280;39505;53.040;18.488;2023-03-05T00:28:48;100843.06;;;-2.67;91.00
53619;BME280;39505;53.040;18.488;2023-03-05T00:29:03;100843.06;;;-2.67;92.02
53619;BME280;39505;53.040;18.488;2023-03-05T00:29:17;100841.31;;;-2.68;92.40
53619;BME280;39505;53.040;18.488;2023-03-05T00:29:30;100844.84;;;-2.68;92.51
53619;BME280;39505;53.040;18.488;2023-03-05T00:29:43;100843.94;;;-2.68;92.16
53619;BME280;39505;53.040;18.488;2023-03-05T00:29:55;100848.34;;;-2.69;92.12
53619;BME280;39505;53.040;18.488;2023-03-05T00:30:10;100842.25;;;-2.69;92.18
53619;BME280;39505;53.040;18.488;2023-03-05T00:30:23;100840.50;;;-2.70;92.60
53619;BME280;39505;53.040;18.488;2023-03-05T00:30:36;100844.91;;;-2.71;92.32
53619;BME280;39505;53.040;18.488;2023-03-05T00:30:48;100839.66;;;-2.71;92.17
53619;BME280;39505;53.040;18.488;2023-03-05T00:31:01;100837.06;;;-2.73;92.23
53619;BME280;39505;53.040;18.488;2023-03-05T00:31:14;100837.94;;;-2.72;92.57
53619;BME280;39505;53.040;18.488;2023-03-05T00:31:30;100834.44;;;-2.73;92.69
53619;BME280;39505;53.040;18.488;2023-03-05T00:31:43;100840.63;;;-2.74;93.38
53619;BME280;39505;53.040;18.488;2023-03-05T00:31:57;100837.06;;;-2.73;93.50
53619;BME280;39505;53.040;18.488;2023-03-05T00:32:10;100843.19;;;-2.72;93.89
53619;BME280;39505;53.040;18.488;2023-03-05T00:32:22;100841.47;;;-2.73;94.10
53619;BME280;39505;53.040;18.488;2023-03-05T00:32:35;100840.63;;;-2.74;94.09
53619;BME280;39505;53.040;18.488;2023-03-05T00:32:48;100835.38;;;-2.74;94.04
53619;BME280;39505;53.040;18.488;2023-03-05T00:33:00;100839.69;;;-2.73;94.11
53619;BME280;39505;53.040;18.488;2023-03-05T00:33:13;100843.25;;;-2.74;93.99
53619;BME280;39505;53.040;18.488;2023-03-05T00:33:26;100843.25;;;-2.74;93.71
53619;BME280;39505;53.040;18.488;2023-03-05T00:33:40;100842.38;;;-2.74;93.88
53619;BME280;39505;53.040;18.488;2023-03-05T00:33:54;100839.81;;;-2.76;93.67
53619;BME280;39505;53.040;18.488;2023-03-05T00:34:08;100837.19;;;-2.76;93.38
53619;BME280;39505;53.040;18.488;2023-03-05T00:34:24;100838.94;;;-2.76;93.41
53619;BME280;39505;53.040;18.488;2023-03-05T00:34:39;100840.72;;;-2.77;93.84
53619;BME280;39505;53.040;18.488;2023-03-05T00:34:52;100838.97;;;-2.78;93.67
53619;BME280;39505;53.040;18.488;2023-03-05T00:35:06;100844.22;;;-2.78;93.58
53619;BME280;39505;53.040;18.488;2023-03-05T00:35:19;100841.59;;;-2.78;93.68
53619;BME280;39505;53.040;18.488;2023-03-05T00:35:38;100840.78;;;-2.80;93.67
53619;BME280;39505;53.040;18.488;2023-03-05T00:35:50;100840.78;;;-2.80;93.63
53619;BME280;39505;53.040;18.488;2023-03-05T00:36:05;100840.78;;;-2.80;93.75
53619;BME280;39505;53.040;18.488;2023-03-05T00:36:18;100840.81;;;-2.81;93.56
53619;BME280;39505;53.040;18.488;2023-03-05T00:36:32;100838.19;;;-2.81;93.69
53619;BME280;39505;53.040;18.488;2023-03-05T00:36:46;100834.72;;;-2.82;93.69
53619;BME280;39505;53.040;18.488;2023-03-05T00:36:59;100840.91;;;-2.83;93.83
53619;BME280;39505;53.040;18.488;2023-03-05T00:37:11;100836.53;;;-2.84;93.80
53619;BME280;39505;53.040;18.488;2023-03-05T00:37:25;100840.91;;;-2.83;94.01
53619;BME280;39505;53.040;18.488;2023-03-05T00:37:38;100837.38;;;-2.83;93.89
53619;BME280;39505;53.040;18.488;2023-03-05T00:37:51;100844.41;;;-2.84;94.01
53619;BME280;39505;53.040;18.488;2023-03-05T00:38:04;100839.16;;;-2.84;94.03
53619;BME280;39505;53.040;18.488;2023-03-05T00:38:16;100838.34;;;-2.86;93.81
53619;BME280;39505;53.040;18.488;2023-03-05T00:38:29;100832.22;;;-2.85;93.96
53619;BME280;39505;53.040;18.488;2023-03-05T00:38:42;100838.34;;;-2.86;94.22
53619;BME280;39505;53.040;18.488;2023-03-05T00:38:55;100840.13;;;-2.86;94.33
53619;BME280;39505;53.040;18.488;2023-03-05T00:39:09;100841.03;;;-2.87;94.87
53619;BME280;39505;53.040;18.488;2023-03-05T00:39:22;100838.44;;;-2.89;94.81
53619;BME280;39505;53.040;18.488;2023-03-05T00:39:35;100839.31;;;-2.88;94.92
53619;BME280;39505;53.040;18.488;2023-03-05T00:39:47;100843.69;;;-2.89;95.18
53619;BME280;39505;53.040;18.488;2023-03-05T00:40:00;100842.84;;;-2.89;95.60
53619;BME280;39505;53.040;18.488;2023-03-05T00:40:14;100841.06;;;-2.89;95.64
53619;BME280;39505;53.040;18.488;2023-03-05T00:40:27;100830.56;;;-2.89;95.71
53619;BME280;39505;53.040;18.488;2023-03-05T00:40:40;100842.78;;;-2.88;95.58
53619;BME280;39505;53.040;18.488;2023-03-05T00:40:53;100834.97;;;-2.89;96.08
53619;BME280;39505;53.040;18.488;2023-03-05T00:41:05;100840.22;;;-2.89;96.82
53619;BME280;39505;53.040;18.488;2023-03-05T00:41:19;100830.56;;;-2.89;97.39
53619;BME280;39505;53.040;18.488;2023-03-05T00:41:32;100829.72;;;-2.89;97.71
53619;BME280;39505;53.040;18.488;2023-03-05T00:41:45;100841.06;;;-2.89;98.28
53619;BME280;39505;53.040;18.488;2023-03-05T00:41:59;100832.28;;;-2.88;98.11
53619;BME280;39505;53.040;18.488;2023-03-05T00:42:11;100838.41;;;-2.87;97.87
53619;BME280;39505;53.040;18.488;2023-03-05T00:42:24;100836.63;;;-2.87;97.97
53619;BME280;39505;53.040;18.488;2023-03-05T00:42:37;100832.28;;;-2.88;98.08
53619;BME280;39505;53.040;18.488;2023-03-05T00:42:50;100830.53;;;-2.87;98.41
53619;BME280;39505;53.040;18.488;2023-03-05T00:43:03;100827.91;;;-2.87;98.36
53619;BME280;39505;53.040;18.488;2023-03-05T00:43:16;100834.88;;;-2.86;98.38
53619;BME280;39505;53.040;18.488;2023-03-05T00:43:28;100832.25;;;-2.86;98.51
53619;BME280;39505;53.040;18.488;2023-03-05T00:43:42;100827.84;;;-2.86;98.98
53619;BME280;39505;53.040;18.488;2023-03-05T00:43:55;100826.97;;;-2.85;98.79
53619;BME280;39505;53.040;18.488;2023-03-05T00:44:08;100835.69;;;-2.84;98.86
53619;BME280;39505;53.040;18.488;2023-03-05T00:44:20;100833.91;;;-2.84;98.55
53619;BME280;39505;53.040;18.488;2023-03-05T00:44:33;100821.72;;;-2.85;98.58
53619;BME280;39505;53.040;18.488;2023-03-05T00:44:46;100830.44;;;-2.84;98.55
53619;BME280;39505;53.040;18.488;2023-03-05T00:44:59;100827.81;;;-2.84;98.92
53619;BME280;39505;53.040;18.488;2023-03-05T00:45:12;100829.50;;;-2.83;98.94
53619;BME280;39505;53.040;18.488;2023-03-05T00:45:25;100823.41;;;-2.84;99.38
53619;BME280;39505;53.040;18.488;2023-03-05T00:45:37;100828.66;;;-2.84;99.57
53619;BME280;39505;53.040;18.488;2023-03-05T00:45:50;100826.03;;;-2.84;99.43
53619;BME280;39505;53.040;18.488;2023-03-05T00:46:03;100826.00;;;-2.82;99.79
53619;BME280;39505;53.040;18.488;2023-03-05T00:46:17;100826.84;;;-2.82;99.96
53619;BME280;39505;53.040;18.488;2023-03-05T00:46:30;100827.78;;;-2.83;99.69
53619;BME280;39505;53.040;18.488;2023-03-05T00:46:43;100832.09;;;-2.82;99.69
53619;BME280;39505;53.040;18.488;2023-03-05T00:46:56;100825.09;;;-2.81;99.82
53619;BME280;39505;53.040;18.488;2023-03-05T00:47:09;100825.06;;;-2.80;99.58
53619;BME280;39505;53.040;18.488;2023-03-05T00:47:21;100824.19;;;-2.80;100.00
53619;BME280;39505;53.040;18.488;2023-03-05T00:47:34;100826.78;;;-2.79;99.83
53619;BME280;39505;53.040;18.488;2023-03-05T00:47:47;100827.63;;;-2.78;99.56
53619;BME280;39505;53.040;18.488;2023-03-05T00:48:00;100823.25;;;-2.78;98.99
53619;BME280;39505;53.040;18.488;2023-03-05T00:48:14;100825.81;;;-2.76;99.03
53619;BME280;39505;53.040;18.488;2023-03-05T00:48:27;100824.97;;;-2.77;98.70
53619;BME280;39505;53.040;18.488;2023-03-05T00:48:39;100826.69;;;-2.76;98.88
53619;BME280;39505;53.040;18.488;2023-03-05T00:48:52;100828.44;;;-2.76;98.83
53619;BME280;39505;53.040;18.488;2023-03-05T00:49:05;100827.53;;;-2.75;98.58
53619;BME280;39505;53.040;18.488;2023-03-05T00:49:18;100829.25;;;-2.74;98.85
53619;BME280;39505;53.040;18.488;2023-03-05T00:49:33;100824.03;;;-2.74;nan
53619;BME280;39505;53.040;18.488;2023-03-05T00:49:46;100824.03;;;-2.74;98.79
53619;BME280;39505;53.040;18.488;2023-03-05T00:49:59;100830.13;;;-2.74;98.72
53619;BME280;39505;53.040;18.488;2023-03-05T00:50:12;100824.03;;;-2.74;98.53
53619;BME280;39505;53.040;18.488;2023-03-05T00:50:25;100824.88;;;-2.74;98.89
53619;BME280;39505;53.040;18.488;2023-03-05T00:50:38;100820.47;;;-2.73;98.58
53619;BME280;39505;53.040;18.488;2023-03-05T00:50:51;100820.50;;;-2.75;98.93
53619;BME280;39505;53.040;18.488;2023-03-05T00:51:04;100818.78;;;-2.74;98.74
53619;BME280;39505;53.040;18.488;2023-03-05T00:51:18;100827.50;;;-2.74;99.21
53619;BME280;39505;53.040;18.488;2023-03-05T00:51:30;100821.41;;;-2.74;99.31
53619;BME280;39505;53.040;18.488;2023-03-05T00:51:43;100826.56;;;-2.73;99.80
53619;BME280;39505;53.040;18.488;2023-03-05T00:51:56;100820.47;;;-2.73;99.89
53619;BME280;39505;53.040;18.488;2023-03-05T00:52:08;100826.56;;;-2.73;100.00
53619;BME280;39505;53.040;18.488;2023-03-05T00:52:21;100826.56;;;-2.73;99.86
53619;BME280;39505;53.040;18.488;2023-03-05T00:52:33;100827.50;;;-2.74;99.64
53619;BME280;39505;53.040;18.488;2023-03-05T00:52:47;100825.69;;;-2.72;99.62
53619;BME280;39505;53.040;18.488;2023-03-05T00:53:00;100828.31;;;-2.72;99.72
53619;BME280;39505;53.040;18.488;2023-03-05T00:53:12;100823.91;;;-2.71;99.77
53619;BME280;39505;53.040;18.488;2023-03-05T00:53:25;100826.53;;;-2.71;99.86
53619;BME280;39505;53.040;18.488;2023-03-05T00:53:38;100823.06;;;-2.72;99.98
53619;BME280;39505;53.040;18.488;2023-03-05T00:53:51;100821.25;;;-2.69;100.00
53619;BME280;39505;53.040;18.488;2023-03-05T00:54:04;100825.69;;;-2.72;99.89
53619;BME280;39505;53.040;18.488;2023-03-05T00:54:18;100818.66;;;-2.71;99.77
53619;BME280;39505;53.040;18.488;2023-03-05T00:54:30;100824.75;;;-2.70;99.95
53619;BME280;39505;53.040;18.488;2023-03-05T00:54:43;100822.09;;;-2.69;99.80
53619;BME280;39505;53.040;18.488;2023-03-05T00:54:55;100826.50;;;-2.69;99.69
53619;BME280;39505;53.040;18.488;2023-03-05T00:55:09;100826.50;;;-2.69;100.00
53619;BME280;39505;53.040;18.488;2023-03-05T00:55:21;100821.25;;;-2.69;100.00
53619;BME280;39505;53.040;18.488;2023-03-05T00:55:34;100819.47;;;-2.69;100.00
53619;BME280;39505;53.040;18.488;2023-03-05T00:55:47;100816.00;;;-2.69;100.00
53619;BME280;39505;53.040;18.488;2023-03-05T00:56:00;100823.84;;;-2.68;100.00
53619;BME280;39505;53.040;18.488;2023-03-05T00:56:13;100819.47;;;-2.69;100.00
53619;BME280;39505;53.040;18.488;2023-03-05T00:56:26;100817.69;;;-2.68;100.00
53619;BME280;39505;53.040;18.488;2023-03-05T00:56:39;100815.09;;;-2.68;100.00
53619;BME280;39505;53.040;18.488;2023-03-05T00:56:51;100822.94;;;-2.68;100.00
53619;BME280;39505;53.040;18.488;2023-03-05T00:57:04;100815.97;;;-2.68;100.00
53619;BME280;39505;53.040;18.488;2023-03-05T00:57:17;100817.69;;;-2.68;100.00
53619;BME280;39505;53.040;18.488;2023-03-05T00:57:31;100816.81;;;-2.67;100.00
53619;BME280;39505;53.040;18.488;2023-03-05T00:57:44;100816.00;;;-2.69;100.00
53619;BME280;39505;53.040;18.488;2023-03-05T00:57:57;100820.31;;;-2.68;100.00
53619;BME280;39505;53.040;18.488;2023-03-05T00:58:09;100816.84;;;-2.69;100.00
53619;BME280;39505;53.040;18.488;2023-03-05T00:58:22;100817.69;;;-2.68;100.00
53619;BME280;39505;53.040;18.488;2023-03-05T00:58:35;100817.69;;;-2.68;100.00
53619;BME280;39505;53.040;18.488;2023-03-05T00:58:47;100817.69;;;-2.68;100.00
53619;BME280;39505;53.040;18.488;2023-03-05T00:59:00;100812.47;;;-2.68;100.00
53619;BME280;39505;53.040;18.488;2023-03-05T00:59:14;100816.00;;;-2.69;100.00
53619;BME280;39505;53.040;18.488;2023-03-05T00:59:26;100816.84;;;-2.69;100.00
53619;BME280;39505;53.040;18.488;2023-03-05T00:59:39;100814.25;;;-2.70;100.00
53619;BME280;39505;53.040;18.488;2023-03-05T00:59:52;100814.25;;;-2.70;100.00
53619;BME280;39505;53.040;18.488;2023-03-05T01:00:06;100819.47;;;-2.69;100.00
53619;BME280;39505;53.040;18.488;2023-03-05T01:00:19;100813.38;;;-2.69;100.00
53619;BME280;39505;53.040;18.488;2023-03-05T01:00:32;100811.59;;;-2.69;100.00
53619;BME280;39505;53.040;18.488;2023-03-05T01:00:45;100810.75;;;-2.69;100.00
53619;BME280;39505;53.040;18.488;2023-03-05T01:01:02;100815.16;;;-2.70;100.00
53619;BME280;39505;53.040;18.488;2023-03-05T01:01:15;100816.88;;;-2.70;100.00
53619;BME280;39505;53.040;18.488;2023-03-05T01:01:28;100816.00;;;-2.69;100.00
53619;BME280;39505;53.040;18.488;2023-03-05T01:01:41;100809.91;;;-2.70;100.00
53619;BME280;39505;53.040;18.488;2023-03-05T01:01:53;100814.25;;;-2.70;100.00
53619;BME280;39505;53.040;18.488;2023-03-05T01:02:07;100814.25;;;-2.70;100.00
53619;BME280;39505;53.040;18.488;2023-03-05T01:02:20;100807.31;;;-2.72;100.00
53619;BME280;39505;53.040;18.488;2023-03-05T01:02:32;100816.00;;;-2.69;100.00
53619;BME280;39505;53.040;18.488;2023-03-05T01:02:46;100816.84;;;-2.69;100.00
53619;BME280;39505;53.040;18.488;2023-03-05T01:02:58;100817.69;;;-2.68;100.00
53619;BME280;39505;53.040;18.488;2023-03-05T01:03:11;100809.03;;;-2.70;100.00
53619;BME280;39505;53.040;18.488;2023-03-05T01:03:24;100815.09;;;-2.68;100.00
53619;BME280;39505;53.040;18.488;2023-03-05T01:03:36;100815.09;;;-2.68;100.00
53619;BME280;39505;53.040;18.488;2023-03-05T01:03:50;100811.59;;;-2.69;100.00
53619;BME280;39505;53.040;18.488;2023-03-05T01:04:03;100810.75;;;-2.69;100.00
53619;BME280;39505;53.040;18.488;2023-03-05T01:04:16;100811.59;;;-2.69;100.00
53619;BME280;39505;53.040;18.488;2023-03-05T01:04:28;100809.94;;;-2.72;100.00
53619;BME280;39505;53.040;18.488;2023-03-05T01:04:43;100810.78;;;-2.71;100.00
53619;BME280;39505;53.040;18.488;2023-03-05T01:04:58;100811.72;;;-2.72;100.00
53619;BME280;39505;53.040;18.488;2023-03-05T01:05:11;100812.56;;;-2.72;100.00
53619;BME280;39505;53.040;18.488;2023-03-05T01:05:24;100812.56;;;-2.72;100.00
53619;BME280;39505;53.040;18.488;2023-03-05T01:05:38;100809.13;;;-2.74;100.00
53619;BME280;39505;53.040;18.488;2023-03-05T01:05:51;100811.72;;;-2.72;100.00
53619;BME280;39505;53.040;18.488;2023-03-05T01:06:05;100809.13;;;-2.74;100.00
53619;BME280;39505;53.040;18.488;2023-03-05T01:06:18;100804.72;;;-2.73;100.00
53619;BME280;39505;53.040;18.488;2023-03-05T01:06:31;100809.13;;;-2.74;100.00
53619;BME280;39505;53.040;18.488;2023-03-05T01:06:44;100809.97;;;-2.73;100.00
53619;BME280;39505;53.040;18.488;2023-03-05T01:06:58;100809.13;;;-2.74;100.00
53619;BME280;39505;53.040;18.488;2023-03-05T01:07:11;100807.38;;;-2.75;100.00
53619;BME280;39505;53.040;18.488;2023-03-05T01:07:23;100803.03;;;-2.74;100.00
53619;BME280;39505;53.040;18.488;2023-03-05T01:07:36;100805.66;;;-2.74;100.00
53619;BME280;39505;53.040;18.488;2023-03-05T01:07:51;100807.38;;;-2.75;100.00
53619;BME280;39505;53.040;18.488;2023-03-05T01:08:04;100806.53;;;-2.75;100.00
53619;BME280;39505;53.040;18.488;2023-03-05T01:08:17;100806.53;;;-2.75;100.00
53619;BME280;39505;53.040;18.488;2023-03-05T01:08:30;100805.69;;;-2.76;100.00